sensor_id;sensor_type;location;lat;lon;timestamp;temperature;humidity
76333;DHT22;71254;53.010;6.508;2023-09-30T00:00:26;11.30;98.50
76333;DHT22;71254;53.010;6.508;2023-09-30T00:02:52;11.30;98.50
76333;DHT22;71254;53.010;6.508;2023-09-30T00:05:18;11.30;98.50
76333;DHT22;71254;53.010;6.508;2023-09-30T00:07:46;11.30;98.50
76333;DHT22;71254;53.010;6.508;2023-09-30T00:10:11;11.30;98.60
76333;DHT22;71254;53.010;6.508;2023-09-30T00:12:37;11.30;98.60
76333;DHT22;71254;53.010;6.508;2023-09-30T00:15:03;11.30;98.60
76333;DHT22;71254;53.010;6.508;2023-09-30T00:17:29;11.30;98.60
76333;DHT22;71254;53.010;6.508;2023-09-30T00:19:55;11.30;98.60
76333;DHT22;71254;53.010;6.508;2023-09-30T00:22:21;11.30;98.60
76333;DHT22;71254;53.010;6.508;2023-09-30T00:24:47;11.30;98.70
76333;DHT22;71254;53.010;6.508;2023-09-30T00:27:12;11.30;98.70
76333;DHT22;71254;53.010;6.508;2023-09-30T00:29:38;11.30;98.70
76333;DHT22;71254;53.010;6.508;2023-09-30T00:32:04;11.30;98.70
76333;DHT22;71254;53.010;6.508;2023-09-30T00:34:35;11.30;98.80
76333;DHT22;71254;53.010;6.508;2023-09-30T00:37:01;11.30;98.80
76333;DHT22;71254;53.010;6.508;2023-09-30T00:39:27;11.30;98.80
76333;DHT22;71254;53.010;6.508;2023-09-30T00:41:59;11.40;98.90
76333;DHT22;71254;53.010;6.508;2023-09-30T00:44:26;11.30;98.90
76333;DHT22;71254;53.010;6.508;2023-09-30T00:46:51;11.40;99.00
76333;DHT22;71254;53.010;6.508;2023-09-30T00:49:18;11.40;99.00
76333;DHT22;71254;53.010;6.508;2023-09-30T00:51:45;11.40;99.00
76333;DHT22;71254;53.010;6.508;2023-09-30T00:54:11;11.40;99.00
76333;DHT22;71254;53.010;6.508;2023-09-30T00:56:43;11.50;99.00
76333;DHT22;71254;53.010;6.508;2023-09-30T00:59:10;11.40;99.00
76333;DHT22;71254;53.010;6.508;2023-09-30T01:01:35;11.40;99.00
76333;DHT22;71254;53.010;6.508;2023-09-30T01:04:02;11.40;99.00
76333;DHT22;71254;53.010;6.508;2023-09-30T01:06:27;11.40;99.10
76333;DHT22;71254;53.010;6.508;2023-09-30T01:08:53;11.40;99.10
76333;DHT22;71254;53.010;6.508;2023-09-30T01:11:20;11.40;99.10
76333;DHT22;71254;53.010;6.508;2023-09-30T01:13:46;11.40;99.10
76333;DHT22;71254;53.010;6.508;2023-09-30T01:16:13;11.50;99.10
76333;DHT22;71254;53.010;6.508;2023-09-30T01:18:41;11.40;99.10
76333;DHT22;71254;53.010;6.508;2023-09-30T01:21:08;11.40;99.10
76333;DHT22;71254;53.010;6.508;2023-09-30T01:23:35;11.40;99.10
76333;DHT22;71254;53.010;6.508;2023-09-30T01:26:11;11.40;99.10
76333;DHT22;71254;53.010;6.508;2023-09-30T01:28:38;11.40;99.20
76333;DHT22;71254;53.010;6.508;2023-09-30T01:31:04;11.40;99.10
76333;DHT22;71254;53.010;6.508;2023-09-30T01:33:30;11.40;99.10
76333;DHT22;71254;53.010;6.508;2023-09-30T01:35:57;11.40;99.20
76333;DHT22;71254;53.010;6.508;2023-09-30T01:38:23;11.50;99.30
76333;DHT22;71254;53.010;6.508;2023-09-30T01:40:49;11.50;99.50
76333;DHT22;71254;53.010;6.508;2023-09-30T01:43:14;11.60;99.90
76333;DHT22;71254;53.010;6.508;2023-09-30T01:45:41;11.60;99.60
76333;DHT22;71254;53.010;6.508;2023-09-30T01:48:07;11.60;99.70
76333;DHT22;71254;53.010;6.508;2023-09-30T01:50:37;11.60;99.70
76333;DHT22;71254;53.010;6.508;2023-09-30T01:53:04;11.70;99.70
76333;DHT22;71254;53.010;6.508;2023-09-30T01:55:32;11.70;99.70
76333;DHT22;71254;53.010;6.508;2023-09-30T01:57:57;11.70;99.60
76333;DHT22;71254;53.010;6.508;2023-09-30T02:00:23;11.70;99.50
76333;DHT22;71254;53.010;6.508;2023-09-30T02:02:48;11.70;99.40
76333;DHT22;71254;53.010;6.508;2023-09-30T02:05:14;11.60;99.30
76333;DHT22;71254;53.010;6.508;2023-09-30T02:07:40;11.60;99.30
76333;DHT22;71254;53.010;6.508;2023-09-30T02:10:06;11.60;99.30
76333;DHT22;71254;53.010;6.508;2023-09-30T02:12:32;11.60;99.30
76333;DHT22;71254;53.010;6.508;2023-09-30T02:14:58;11.60;99.40
76333;DHT22;71254;53.010;6.508;2023-09-30T02:17:24;11.70;99.60
76333;DHT22;71254;53.010;6.508;2023-09-30T02:19:50;11.70;99.70
76333;DHT22;71254;53.010;6.508;2023-09-30T02:22:15;11.80;99.80
76333;DHT22;71254;53.010;6.508;2023-09-30T02:24:41;11.80;99.90
76333;DHT22;71254;53.010;6.508;2023-09-30T02:27:06;11.90;99.90
76333;DHT22;71254;53.010;6.508;2023-09-30T02:29:33;11.90;99.90
76333;DHT22;71254;53.010;6.508;2023-09-30T02:31:59;11.90;99.90
76333;DHT22;71254;53.010;6.508;2023-09-30T02:34:24;12.00;99.90
76333;DHT22;71254;53.010;6.508;2023-09-30T02:36:50;12.00;99.90
76333;DHT22;71254;53.010;6.508;2023-09-30T02:39:17;12.00;99.90
76333;DHT22;71254;53.010;6.508;2023-09-30T02:41:43;12.00;99.90
76333;DHT22;71254;53.010;6.508;2023-09-30T02:44:08;12.00;99.90
76333;DHT22;71254;53.010;6.508;2023-09-30T02:46:34;12.10;99.90
76333;DHT22;71254;53.010;6.508;2023-09-30T02:49:03;12.10;99.90
76333;DHT22;71254;53.010;6.508;2023-09-30T02:51:28;12.20;99.90
76333;DHT22;71254;53.010;6.508;2023-09-30T02:53:55;12.20;99.90
76333;DHT22;71254;53.010;6.508;2023-09-30T02:56:21;12.20;99.90
76333;DHT22;71254;53.010;6.508;2023-09-30T02:58:49;12.20;99.90
76333;DHT22;71254;53.010;6.508;2023-09-30T03:01:16;12.20;99.90
76333;DHT22;71254;53.010;6.508;2023-09-30T03:03:43;12.20;99.90
76333;DHT22;71254;53.010;6.508;2023-09-30T03:06:11;12.20;99.90
76333;DHT22;71254;53.010;6.508;2023-09-30T03:08:37;12.20;99.90
76333;DHT22;71254;53.010;6.508;2023-09-30T03:11:03;12.20;99.90
76333;DHT22;71254;53.010;6.508;2023-09-30T03:13:30;12.30;99.90
76333;DHT22;71254;53.010;6.508;2023-09-30T03:15:56;12.20;99.80
76333;DHT22;71254;53.010;6.508;2023-09-30T03:18:22;12.20;99.70
76333;DHT22;71254;53.010;6.508;2023-09-30T03:20:52;12.20;99.70
76333;DHT22;71254;53.010;6.508;2023-09-30T03:23:22;12.20;99.70
76333;DHT22;71254;53.010;6.508;2023-09-30T03:25:59;12.20;99.70
76333;DHT22;71254;53.010;6.508;2023-09-30T03:28:27;12.20;99.70
76333;DHT22;71254;53.010;6.508;2023-09-30T03:30:54;12.20;99.80
76333;DHT22;71254;53.010;6.508;2023-09-30T03:33:19;12.20;99.80
76333;DHT22;71254;53.010;6.508;2023-09-30T03:35:45;12.30;99.90
76333;DHT22;71254;53.010;6.508;2023-09-30T03:38:11;12.20;99.80
76333;DHT22;71254;53.010;6.508;2023-09-30T03:40:41;12.20;99.70
76333;DHT22;71254;53.010;6.508;2023-09-30T03:43:16;12.20;99.70
76333;DHT22;71254;53.010;6.508;2023-09-30T03:45:41;12.20;99.50
76333;DHT22;71254;53.010;6.508;2023-09-30T03:48:07;12.10;99.40
76333;DHT22;71254;53.010;6.508;2023-09-30T03:50:34;12.10;99.30
76333;DHT22;71254;53.010;6.508;2023-09-30T03:53:04;12.00;99.30
76333;DHT22;71254;53.010;6.508;2023-09-30T03:55:33;12.10;99.20
76333;DHT22;71254;53.010;6.508;2023-09-30T03:57:59;11.90;99.20
76333;DHT22;71254;53.010;6.508;2023-09-30T04:00:25;11.90;99.20
76333;DHT22;71254;53.010;6.508;2023-09-30T04:02:51;11.80;99.10
76333;DHT22;71254;53.010;6.508;2023-09-30T04:05:23;11.90;99.20
76333;DHT22;71254;53.010;6.508;2023-09-30T04:07:54;11.80;99.30
76333;DHT22;71254;53.010;6.508;2023-09-30T04:10:20;11.70;99.20
76333;DHT22;71254;53.010;6.508;2023-09-30T04:12:48;11.70;99.20
76333;DHT22;71254;53.010;6.508;2023-09-30T04:15:13;11.70;99.60
76333;DHT22;71254;53.010;6.508;2023-09-30T04:17:39;11.70;99.40
76333;DHT22;71254;53.010;6.508;2023-09-30T04:20:08;11.70;99.40
76333;DHT22;71254;53.010;6.508;2023-09-30T04:22:42;11.70;99.50
76333;DHT22;71254;53.010;6.508;2023-09-30T04:25:14;11.70;99.50
76333;DHT22;71254;53.010;6.508;2023-09-30T04:27:42;11.70;99.50
76333;DHT22;71254;53.010;6.508;2023-09-30T04:30:08;11.70;99.50
76333;DHT22;71254;53.010;6.508;2023-09-30T04:32:36;11.60;99.50
76333;DHT22;71254;53.010;6.508;2023-09-30T04:35:03;11.70;99.50
76333;DHT22;71254;53.010;6.508;2023-09-30T04:37:29;11.70;99.50
76333;DHT22;71254;53.010;6.508;2023-09-30T04:39:55;11.60;99.50
76333;DHT22;71254;53.010;6.508;2023-09-30T04:42:20;11.60;99.50
76333;DHT22;71254;53.010;6.508;2023-09-30T04:44:46;11.60;99.50
76333;DHT22;71254;53.010;6.508;2023-09-30T04:47:11;11.60;99.60
76333;DHT22;71254;53.010;6.508;2023-09-30T04:49:37;11.60;99.60
76333;DHT22;71254;53.010;6.508;2023-09-30T04:52:03;11.60;99.60
76333;DHT22;71254;53.010;6.508;2023-09-30T04:54:30;11.60;99.60
76333;DHT22;71254;53.010;6.508;2023-09-30T04:56:56;11.60;99.60
76333;DHT22;71254;53.010;6.508;2023-09-30T04:59:21;11.60;99.60
76333;DHT22;71254;53.010;6.508;2023-09-30T05:01:50;11.50;99.60
76333;DHT22;71254;53.010;6.508;2023-09-30T05:04:16;11.50;99.60
76333;DHT22;71254;53.010;6.508;2023-09-30T05:06:41;11.50;99.60
76333;DHT22;71254;53.010;6.508;2023-09-30T05:09:07;11.50;99.60
76333;DHT22;71254;53.010;6.508;2023-09-30T05:11:33;11.50;99.50
76333;DHT22;71254;53.010;6.508;2023-09-30T05:14:00;11.40;99.50
76333;DHT22;71254;53.010;6.508;2023-09-30T05:16:26;11.40;99.50
76333;DHT22;71254;53.010;6.508;2023-09-30T05:18:52;11.40;99.50
76333;DHT22;71254;53.010;6.508;2023-09-30T05:21:18;11.40;99.50
76333;DHT22;71254;53.010;6.508;2023-09-30T05:23:43;11.40;99.40
76333;DHT22;71254;53.010;6.508;2023-09-30T05:26:09;11.30;99.40
76333;DHT22;71254;53.010;6.508;2023-09-30T05:28:35;11.30;99.40
76333;DHT22;71254;53.010;6.508;2023-09-30T05:31:00;11.20;99.70
76333;DHT22;71254;53.010;6.508;2023-09-30T05:33:27;11.30;99.40
76333;DHT22;71254;53.010;6.508;2023-09-30T05:35:53;11.30;99.50
76333;DHT22;71254;53.010;6.508;2023-09-30T05:38:20;11.30;99.60
76333;DHT22;71254;53.010;6.508;2023-09-30T05:40:46;11.30;99.60
76333;DHT22;71254;53.010;6.508;2023-09-30T05:43:11;11.30;99.70
76333;DHT22;71254;53.010;6.508;2023-09-30T05:45:39;11.30;99.70
76333;DHT22;71254;53.010;6.508;2023-09-30T05:48:14;11.20;99.70
76333;DHT22;71254;53.010;6.508;2023-09-30T05:50:41;11.20;99.70
76333;DHT22;71254;53.010;6.508;2023-09-30T05:53:08;11.20;99.70
76333;DHT22;71254;53.010;6.508;2023-09-30T05:55:35;11.20;99.70
76333;DHT22;71254;53.010;6.508;2023-09-30T05:58:01;11.20;99.70
76333;DHT22;71254;53.010;6.508;2023-09-30T06:00:27;11.20;99.70
76333;DHT22;71254;53.010;6.508;2023-09-30T06:03:00;11.20;99.70
76333;DHT22;71254;53.010;6.508;2023-09-30T06:05:27;11.20;99.70
76333;DHT22;71254;53.010;6.508;2023-09-30T06:07:55;11.20;99.70
76333;DHT22;71254;53.010;6.508;2023-09-30T06:10:21;11.10;99.60
76333;DHT22;71254;53.010;6.508;2023-09-30T06:12:48;11.20;99.70
76333;DHT22;71254;53.010;6.508;2023-09-30T06:15:15;11.10;99.70
76333;DHT22;71254;53.010;6.508;2023-09-30T06:17:41;11.20;99.80
76333;DHT22;71254;53.010;6.508;2023-09-30T06:20:08;11.20;99.90
76333;DHT22;71254;53.010;6.508;2023-09-30T06:22:42;11.20;99.90
76333;DHT22;71254;53.010;6.508;2023-09-30T06:25:08;11.20;99.90
76333;DHT22;71254;53.010;6.508;2023-09-30T06:27:33;11.30;99.90
76333;DHT22;71254;53.010;6.508;2023-09-30T06:29:59;11.30;99.90
76333;DHT22;71254;53.010;6.508;2023-09-30T06:32:24;11.30;99.90
76333;DHT22;71254;53.010;6.508;2023-09-30T06:34:50;11.40;99.90
76333;DHT22;71254;53.010;6.508;2023-09-30T06:37:16;11.40;99.90
76333;DHT22;71254;53.010;6.508;2023-09-30T06:39:43;11.50;99.90
76333;DHT22;71254;53.010;6.508;2023-09-30T06:42:08;11.50;99.90
76333;DHT22;71254;53.010;6.508;2023-09-30T06:44:34;11.50;99.90
76333;DHT22;71254;53.010;6.508;2023-09-30T06:47:00;11.60;99.90
76333;DHT22;71254;53.010;6.508;2023-09-30T06:49:25;11.70;99.90
76333;DHT22;71254;53.010;6.508;2023-09-30T06:51:51;11.90;99.90
76333;DHT22;71254;53.010;6.508;2023-09-30T06:54:16;12.30;99.90
76333;DHT22;71254;53.010;6.508;2023-09-30T06:56:42;12.80;99.90
76333;DHT22;71254;53.010;6.508;2023-09-30T06:59:08;13.20;99.90
76333;DHT22;71254;53.010;6.508;2023-09-30T07:01:34;13.70;99.90
76333;DHT22;71254;53.010;6.508;2023-09-30T07:03:59;14.10;99.40
76333;DHT22;71254;53.010;6.508;2023-09-30T07:06:25;14.40;98.60
76333;DHT22;71254;53.010;6.508;2023-09-30T07:08:52;14.80;98.30
76333;DHT22;71254;53.010;6.508;2023-09-30T07:11:27;15.10;97.80
76333;DHT22;71254;53.010;6.508;2023-09-30T07:13:53;15.40;96.90
76333;DHT22;71254;53.010;6.508;2023-09-30T07:16:19;15.70;96.90
76333;DHT22;71254;53.010;6.508;2023-09-30T07:18:44;16.10;96.60
76333;DHT22;71254;53.010;6.508;2023-09-30T07:21:10;16.40;96.30
76333;DHT22;71254;53.010;6.508;2023-09-30T07:23:37;16.80;95.70
76333;DHT22;71254;53.010;6.508;2023-09-30T07:26:02;17.00;95.10
76333;DHT22;71254;53.010;6.508;2023-09-30T07:28:28;17.30;94.60
76333;DHT22;71254;53.010;6.508;2023-09-30T07:30:54;17.40;94.40
76333;DHT22;71254;53.010;6.508;2023-09-30T07:33:20;17.60;94.30
76333;DHT22;71254;53.010;6.508;2023-09-30T07:35:46;17.80;94.10
76333;DHT22;71254;53.010;6.508;2023-09-30T07:38:12;17.90;93.40
76333;DHT22;71254;53.010;6.508;2023-09-30T07:40:37;18.00;93.20
76333;DHT22;71254;53.010;6.508;2023-09-30T07:43:03;18.10;93.40
76333;DHT22;71254;53.010;6.508;2023-09-30T07:45:29;18.40;93.10
76333;DHT22;71254;53.010;6.508;2023-09-30T07:47:55;18.60;92.70
76333;DHT22;71254;53.010;6.508;2023-09-30T07:50:20;18.70;92.60
76333;DHT22;71254;53.010;6.508;2023-09-30T07:52:46;18.90;92.00
76333;DHT22;71254;53.010;6.508;2023-09-30T07:55:12;19.10;91.80
76333;DHT22;71254;53.010;6.508;2023-09-30T07:57:40;19.20;91.40
76333;DHT22;71254;53.010;6.508;2023-09-30T08:00:07;19.30;91.20
76333;DHT22;71254;53.010;6.508;2023-09-30T08:02:35;19.50;91.40
76333;DHT22;71254;53.010;6.508;2023-09-30T08:05:02;19.80;91.20
76333;DHT22;71254;53.010;6.508;2023-09-30T08:07:28;20.00;90.60
76333;DHT22;71254;53.010;6.508;2023-09-30T08:09:53;20.30;90.20
76333;DHT22;71254;53.010;6.508;2023-09-30T08:12:19;20.50;89.70
76333;DHT22;71254;53.010;6.508;2023-09-30T08:14:44;20.70;89.40
76333;DHT22;71254;53.010;6.508;2023-09-30T08:17:10;21.00;88.70
76333;DHT22;71254;53.010;6.508;2023-09-30T08:19:37;21.20;88.30
76333;DHT22;71254;53.010;6.508;2023-09-30T08:22:02;21.30;86.10
76333;DHT22;71254;53.010;6.508;2023-09-30T08:24:29;21.40;85.80
76333;DHT22;71254;53.010;6.508;2023-09-30T08:26:54;21.50;85.10
76333;DHT22;71254;53.010;6.508;2023-09-30T08:29:22;21.60;85.00
76333;DHT22;71254;53.010;6.508;2023-09-30T08:31:47;21.80;85.50
76333;DHT22;71254;53.010;6.508;2023-09-30T08:34:16;22.00;84.60
76333;DHT22;71254;53.010;6.508;2023-09-30T08:36:42;22.30;84.30
76333;DHT22;71254;53.010;6.508;2023-09-30T08:39:08;22.40;83.20
76333;DHT22;71254;53.010;6.508;2023-09-30T08:41:36;22.50;83.30
76333;DHT22;71254;53.010;6.508;2023-09-30T08:44:03;22.70;83.10
76333;DHT22;71254;53.010;6.508;2023-09-30T08:46:33;22.80;82.20
76333;DHT22;71254;53.010;6.508;2023-09-30T08:49:01;22.90;78.60
76333;DHT22;71254;53.010;6.508;2023-09-30T08:51:29;23.00;81.00
76333;DHT22;71254;53.010;6.508;2023-09-30T08:53:56;23.00;81.70
76333;DHT22;71254;53.010;6.508;2023-09-30T08:56:28;23.10;80.20
76333;DHT22;71254;53.010;6.508;2023-09-30T08:58:59;23.10;79.50
76333;DHT22;71254;53.010;6.508;2023-09-30T09:01:29;23.10;79.20
76333;DHT22;71254;53.010;6.508;2023-09-30T09:03:55;23.30;79.70
76333;DHT22;71254;53.010;6.508;2023-09-30T09:06:21;23.50;80.50
76333;DHT22;71254;53.010;6.508;2023-09-30T09:08:47;23.70;79.90
76333;DHT22;71254;53.010;6.508;2023-09-30T09:11:14;23.90;79.70
76333;DHT22;71254;53.010;6.508;2023-09-30T09:13:58;23.90;78.40
76333;DHT22;71254;53.010;6.508;2023-09-30T09:16:26;23.50;71.00
76333;DHT22;71254;53.010;6.508;2023-09-30T09:18:51;22.90;79.40
76333;DHT22;71254;53.010;6.508;2023-09-30T09:21:19;22.30;79.60
76333;DHT22;71254;53.010;6.508;2023-09-30T09:23:50;22.00;81.00
76333;DHT22;71254;53.010;6.508;2023-09-30T09:26:28;22.30;81.40
76333;DHT22;71254;53.010;6.508;2023-09-30T09:28:57;22.70;74.80
76333;DHT22;71254;53.010;6.508;2023-09-30T09:31:25;23.10;79.90
76333;DHT22;71254;53.010;6.508;2023-09-30T09:33:52;23.40;80.10
76333;DHT22;71254;53.010;6.508;2023-09-30T09:36:19;23.70;79.00
76333;DHT22;71254;53.010;6.508;2023-09-30T09:38:51;24.00;78.80
76333;DHT22;71254;53.010;6.508;2023-09-30T09:41:20;24.40;77.20
76333;DHT22;71254;53.010;6.508;2023-09-30T09:43:48;24.80;76.90
76333;DHT22;71254;53.010;6.508;2023-09-30T09:46:16;25.00;75.20
76333;DHT22;71254;53.010;6.508;2023-09-30T09:48:45;25.20;74.60
76333;DHT22;71254;53.010;6.508;2023-09-30T09:51:15;25.30;73.90
76333;DHT22;71254;53.010;6.508;2023-09-30T09:53:42;25.60;74.80
76333;DHT22;71254;53.010;6.508;2023-09-30T09:56:09;25.80;73.60
76333;DHT22;71254;53.010;6.508;2023-09-30T09:58:36;25.70;72.40
76333;DHT22;71254;53.010;6.508;2023-09-30T10:01:05;25.10;71.20
76333;DHT22;71254;53.010;6.508;2023-09-30T10:03:32;24.30;72.30
76333;DHT22;71254;53.010;6.508;2023-09-30T10:05:59;23.60;72.00
76333;DHT22;71254;53.010;6.508;2023-09-30T10:08:51;23.20;73.30
76333;DHT22;71254;53.010;6.508;2023-09-30T10:11:19;23.50;68.80
76333;DHT22;71254;53.010;6.508;2023-09-30T10:14:03;23.70;76.30
76333;DHT22;71254;53.010;6.508;2023-09-30T10:21:38;23.30;72.20
76333;DHT22;71254;53.010;6.508;2023-09-30T10:35:20;24.50;66.60
76333;DHT22;71254;53.010;6.508;2023-09-30T10:37:46;24.20;72.70
76333;DHT22;71254;53.010;6.508;2023-09-30T10:40:29;24.20;72.80
76333;DHT22;71254;53.010;6.508;2023-09-30T10:42:54;24.60;65.50
76333;DHT22;71254;53.010;6.508;2023-09-30T10:50:55;25.20;62.20
76333;DHT22;71254;53.010;6.508;2023-09-30T10:53:21;24.60;68.60
76333;DHT22;71254;53.010;6.508;2023-09-30T10:56:00;24.00;68.10
76333;DHT22;71254;53.010;6.508;2023-09-30T10:58:46;23.20;66.20
76333;DHT22;71254;53.010;6.508;2023-09-30T11:01:13;22.60;66.60
76333;DHT22;71254;53.010;6.508;2023-09-30T11:03:43;22.20;69.40
76333;DHT22;71254;53.010;6.508;2023-09-30T11:06:17;21.80;69.90
76333;DHT22;71254;53.010;6.508;2023-09-30T11:08:59;21.50;70.60
76333;DHT22;71254;53.010;6.508;2023-09-30T11:11:44;21.30;70.90
76333;DHT22;71254;53.010;6.508;2023-09-30T11:14:27;21.10;70.30
76333;DHT22;71254;53.010;6.508;2023-09-30T11:16:55;21.10;72.00
76333;DHT22;71254;53.010;6.508;2023-09-30T11:19:21;21.10;72.60
76333;DHT22;71254;53.010;6.508;2023-09-30T11:21:54;21.10;71.20
76333;DHT22;71254;53.010;6.508;2023-09-30T11:24:20;21.00;70.00
76333;DHT22;71254;53.010;6.508;2023-09-30T11:26:46;21.00;71.20
76333;DHT22;71254;53.010;6.508;2023-09-30T11:29:14;21.00;70.70
76333;DHT22;71254;53.010;6.508;2023-09-30T11:31:42;21.00;70.70
76333;DHT22;71254;53.010;6.508;2023-09-30T11:34:09;21.00;70.10
76333;DHT22;71254;53.010;6.508;2023-09-30T11:36:36;20.90;69.10
76333;DHT22;71254;53.010;6.508;2023-09-30T11:39:02;20.90;69.30
76333;DHT22;71254;53.010;6.508;2023-09-30T11:41:33;20.70;69.40
76333;DHT22;71254;53.010;6.508;2023-09-30T11:44:06;20.70;69.80
76333;DHT22;71254;53.010;6.508;2023-09-30T11:46:53;20.70;70.80
76333;DHT22;71254;53.010;6.508;2023-09-30T11:49:39;20.70;68.70
76333;DHT22;71254;53.010;6.508;2023-09-30T11:52:09;20.70;68.90
76333;DHT22;71254;53.010;6.508;2023-09-30T11:54:36;20.80;71.20
76333;DHT22;71254;53.010;6.508;2023-09-30T11:57:19;20.80;71.20
76333;DHT22;71254;53.010;6.508;2023-09-30T11:59:46;20.80;67.90
76333;DHT22;71254;53.010;6.508;2023-09-30T12:02:13;20.90;70.30
76333;DHT22;71254;53.010;6.508;2023-09-30T12:04:41;21.00;70.10
76333;DHT22;71254;53.010;6.508;2023-09-30T12:07:07;21.10;68.40
76333;DHT22;71254;53.010;6.508;2023-09-30T12:09:33;21.20;69.50
76333;DHT22;71254;53.010;6.508;2023-09-30T12:12:02;21.40;69.30
76333;DHT22;71254;53.010;6.508;2023-09-30T12:14:29;21.60;69.10
76333;DHT22;71254;53.010;6.508;2023-09-30T12:16:57;21.80;67.50
76333;DHT22;71254;53.010;6.508;2023-09-30T12:19:23;22.30;66.70
76333;DHT22;71254;53.010;6.508;2023-09-30T12:21:50;23.00;63.90
76333;DHT22;71254;53.010;6.508;2023-09-30T12:24:16;23.80;63.30
76333;DHT22;71254;53.010;6.508;2023-09-30T12:26:49;24.40;60.70
76333;DHT22;71254;53.010;6.508;2023-09-30T12:29:16;25.20;57.70
76333;DHT22;71254;53.010;6.508;2023-09-30T12:31:46;25.90;57.10
76333;DHT22;71254;53.010;6.508;2023-09-30T12:34:13;26.00;53.70
76333;DHT22;71254;53.010;6.508;2023-09-30T12:36:39;25.40;52.70
76333;DHT22;71254;53.010;6.508;2023-09-30T12:39:05;25.00;54.20
76333;DHT22;71254;53.010;6.508;2023-09-30T12:41:39;24.90;53.50
76333;DHT22;71254;53.010;6.508;2023-09-30T12:44:06;25.10;51.90
76333;DHT22;71254;53.010;6.508;2023-09-30T12:46:32;25.20;52.30
76333;DHT22;71254;53.010;6.508;2023-09-30T12:49:01;25.40;52.40
76333;DHT22;71254;53.010;6.508;2023-09-30T12:51:27;25.30;51.80
76333;DHT22;71254;53.010;6.508;2023-09-30T12:53:53;24.90;51.20
76333;DHT22;71254;53.010;6.508;2023-09-30T12:56:19;24.60;50.80
76333;DHT22;71254;53.010;6.508;2023-09-30T12:58:44;24.20;51.20
76333;DHT22;71254;53.010;6.508;2023-09-30T13:01:10;24.00;52.20
76333;DHT22;71254;53.010;6.508;2023-09-30T13:03:35;23.90;52.50
76333;DHT22;71254;53.010;6.508;2023-09-30T13:06:01;23.80;52.20
76333;DHT22;71254;53.010;6.508;2023-09-30T13:08:27;24.10;53.60
76333;DHT22;71254;53.010;6.508;2023-09-30T13:11:01;24.70;53.80
76333;DHT22;71254;53.010;6.508;2023-09-30T13:13:31;25.30;51.40
76333;DHT22;71254;53.010;6.508;2023-09-30T13:15:59;25.80;50.80
76333;DHT22;71254;53.010;6.508;2023-09-30T13:18:25;26.30;50.40
76333;DHT22;71254;53.010;6.508;2023-09-30T13:20:50;26.60;49.00
76333;DHT22;71254;53.010;6.508;2023-09-30T13:23:18;26.70;48.30
76333;DHT22;71254;53.010;6.508;2023-09-30T13:25:44;26.70;48.60
76333;DHT22;71254;53.010;6.508;2023-09-30T13:28:10;26.40;50.00
76333;DHT22;71254;53.010;6.508;2023-09-30T13:30:35;26.30;49.20
76333;DHT22;71254;53.010;6.508;2023-09-30T13:33:01;26.40;47.80
76333;DHT22;71254;53.010;6.508;2023-09-30T13:35:27;26.00;48.10
76333;DHT22;71254;53.010;6.508;2023-09-30T13:37:53;26.10;49.20
76333;DHT22;71254;53.010;6.508;2023-09-30T13:40:18;26.70;47.20
76333;DHT22;71254;53.010;6.508;2023-09-30T13:42:45;26.90;46.30
76333;DHT22;71254;53.010;6.508;2023-09-30T13:45:11;27.10;47.00
76333;DHT22;71254;53.010;6.508;2023-09-30T13:47:36;27.30;47.10
76333;DHT22;71254;53.010;6.508;2023-09-30T13:50:02;27.80;47.10
76333;DHT22;71254;53.010;6.508;2023-09-30T13:52:33;28.10;46.80
76333;DHT22;71254;53.010;6.508;2023-09-30T13:55:00;28.20;46.00
76333;DHT22;71254;53.010;6.508;2023-09-30T13:57:25;28.60;45.60
76333;DHT22;71254;53.010;6.508;2023-09-30T13:59:51;28.90;44.60
76333;DHT22;71254;53.010;6.508;2023-09-30T14:02:16;29.00;44.80
76333;DHT22;71254;53.010;6.508;2023-09-30T14:04:42;29.30;45.10
76333;DHT22;71254;53.010;6.508;2023-09-30T14:07:08;29.30;43.40
76333;DHT22;71254;53.010;6.508;2023-09-30T14:09:33;28.30;42.80
76333;DHT22;71254;53.010;6.508;2023-09-30T14:11:59;27.30;44.10
76333;DHT22;71254;53.010;6.508;2023-09-30T14:14:25;26.90;45.00
76333;DHT22;71254;53.010;6.508;2023-09-30T14:16:51;26.70;45.30
76333;DHT22;71254;53.010;6.508;2023-09-30T14:19:17;26.70;45.30
76333;DHT22;71254;53.010;6.508;2023-09-30T14:21:43;26.70;44.50
76333;DHT22;71254;53.010;6.508;2023-09-30T14:24:09;26.10;45.60
76333;DHT22;71254;53.010;6.508;2023-09-30T14:26:34;25.50;46.80
76333;DHT22;71254;53.010;6.508;2023-09-30T14:29:00;25.10;48.40
76333;DHT22;71254;53.010;6.508;2023-09-30T14:31:26;25.00;48.90
76333;DHT22;71254;53.010;6.508;2023-09-30T14:33:51;24.80;50.30
76333;DHT22;71254;53.010;6.508;2023-09-30T14:36:18;24.60;50.30
76333;DHT22;71254;53.010;6.508;2023-09-30T14:38:45;24.90;49.70
76333;DHT22;71254;53.010;6.508;2023-09-30T14:41:11;25.30;50.30
76333;DHT22;71254;53.010;6.508;2023-09-30T14:43:38;25.50;49.80
76333;DHT22;71254;53.010;6.508;2023-09-30T14:46:04;25.40;49.80
76333;DHT22;71254;53.010;6.508;2023-09-30T14:48:30;24.90;50.20
76333;DHT22;71254;53.010;6.508;2023-09-30T14:50:56;24.40;50.30
76333;DHT22;71254;53.010;6.508;2023-09-30T14:53:22;23.90;50.70
76333;DHT22;71254;53.010;6.508;2023-09-30T14:55:51;23.40;51.30
76333;DHT22;71254;53.010;6.508;2023-09-30T14:58:17;23.00;51.90
76333;DHT22;71254;53.010;6.508;2023-09-30T15:00:43;22.80;53.10
76333;DHT22;71254;53.010;6.508;2023-09-30T15:03:09;22.80;53.50
76333;DHT22;71254;53.010;6.508;2023-09-30T15:05:36;23.00;53.70
76333;DHT22;71254;53.010;6.508;2023-09-30T15:08:02;23.40;53.40
76333;DHT22;71254;53.010;6.508;2023-09-30T15:10:28;23.80;52.50
76333;DHT22;71254;53.010;6.508;2023-09-30T15:12:54;24.20;52.10
76333;DHT22;71254;53.010;6.508;2023-09-30T15:15:20;24.20;53.00
76333;DHT22;71254;53.010;6.508;2023-09-30T15:17:45;24.30;52.90
76333;DHT22;71254;53.010;6.508;2023-09-30T15:20:11;24.30;53.30
76333;DHT22;71254;53.010;6.508;2023-09-30T15:22:37;23.90;52.10
76333;DHT22;71254;53.010;6.508;2023-09-30T15:25:04;23.50;52.90
76333;DHT22;71254;53.010;6.508;2023-09-30T15:27:30;23.10;53.60
76333;DHT22;71254;53.010;6.508;2023-09-30T15:29:58;22.70;54.90
76333;DHT22;71254;53.010;6.508;2023-09-30T15:32:24;22.50;55.50
76333;DHT22;71254;53.010;6.508;2023-09-30T15:34:49;22.20;56.40
76333;DHT22;71254;53.010;6.508;2023-09-30T15:37:15;22.00;57.10
76333;DHT22;71254;53.010;6.508;2023-09-30T15:39:41;21.80;57.50
76333;DHT22;71254;53.010;6.508;2023-09-30T15:42:08;21.60;57.70
76333;DHT22;71254;53.010;6.508;2023-09-30T15:44:41;21.40;58.20
76333;DHT22;71254;53.010;6.508;2023-09-30T15:47:07;21.20;58.80
76333;DHT22;71254;53.010;6.508;2023-09-30T15:49:33;21.00;59.20
76333;DHT22;71254;53.010;6.508;2023-09-30T15:51:59;20.80;59.30